sensor_id;sensor_type;location;lat;lon;timestamp;P1;durP1;ratioP1;P2;durP2;ratioP2
75062;SDS011;63981;51.052;13.754;2023-06-22T00:02:17;9.00;;;7.13;;
75062;SDS011;63981;51.052;13.754;2023-06-22T00:04:43;8.07;;;6.82;;
75062;SDS011;63981;51.052;13.754;2023-06-22T00:07:09;8.30;;;7.10;;
75062;SDS011;63981;51.052;13.754;2023-06-22T00:09:35;8.38;;;6.93;;
75062;SDS011;63981;51.052;13.754;2023-06-22T00:12:01;11.13;;;7.07;;
75062;SDS011;63981;51.052;13.754;2023-06-22T00:14:27;8.57;;;7.25;;
75062;SDS011;63981;51.052;13.754;2023-06-22T00:16:52;7.70;;;6.35;;
75062;SDS011;63981;51.052;13.754;2023-06-22T00:19:23;8.75;;;7.03;;
75062;SDS011;63981;51.052;13.754;2023-06-22T00:21:52;8.57;;;6.90;;
75062;SDS011;63981;51.052;13.754;2023-06-22T00:24:19;7.70;;;6.63;;
75062;SDS011;63981;51.052;13.754;2023-06-22T00:26:46;8.75;;;7.15;;
75062;SDS011;63981;51.052;13.754;2023-06-22T00:29:13;7.38;;;6.45;;
75062;SDS011;63981;51.052;13.754;2023-06-22T00:31:38;10.05;;;7.28;;
75062;SDS011;63981;51.052;13.754;2023-06-22T00:34:04;8.77;;;6.35;;
75062;SDS011;63981;51.052;13.754;2023-06-22T00:36:34;8.70;;;6.45;;
75062;SDS011;63981;51.052;13.754;2023-06-22T00:39:03;8.30;;;7.50;;
75062;SDS011;63981;51.052;13.754;2023-06-22T00:41:29;9.98;;;7.18;;
75062;SDS011;63981;51.052;13.754;2023-06-22T00:43:56;9.50;;;6.82;;
75062;SDS011;63981;51.052;13.754;2023-06-22T00:46:23;8.70;;;7.18;;
75062;SDS011;63981;51.052;13.754;2023-06-22T00:48:50;10.13;;;7.82;;
75062;SDS011;63981;51.052;13.754;2023-06-22T00:51:17;9.55;;;7.40;;
75062;SDS011;63981;51.052;13.754;2023-06-22T00:53:50;9.88;;;7.45;;
75062;SDS011;63981;51.052;13.754;2023-06-22T00:56:18;8.48;;;7.32;;
75062;SDS011;63981;51.052;13.754;2023-06-22T00:58:45;10.48;;;7.10;;
75062;SDS011;63981;51.052;13.754;2023-06-22T01:01:13;10.63;;;7.65;;
75062;SDS011;63981;51.052;13.754;2023-06-22T01:03:39;8.07;;;7.18;;
75062;SDS011;63981;51.052;13.754;2023-06-22T01:06:09;9.93;;;7.05;;
75062;SDS011;63981;51.052;13.754;2023-06-22T01:11:21;7.47;;;6.68;;
75062;SDS011;63981;51.052;13.754;2023-06-22T01:14:04;8.10;;;6.20;;
75062;SDS011;63981;51.052;13.754;2023-06-22T01:16:35;8.13;;;6.65;;
75062;SDS011;63981;51.052;13.754;2023-06-22T01:19:49;10.52;;;8.40;;
75062;SDS011;63981;51.052;13.754;2023-06-22T01:22:15;9.60;;;7.93;;
75062;SDS011;63981;51.052;13.754;2023-06-22T01:30:41;9.18;;;8.10;;
75062;SDS011;63981;51.052;13.754;2023-06-22T01:33:10;9.77;;;8.45;;
75062;SDS011;63981;51.052;13.754;2023-06-22T01:35:38;11.23;;;8.85;;
75062;SDS011;63981;51.052;13.754;2023-06-22T01:38:05;10.20;;;8.85;;
75062;SDS011;63981;51.052;13.754;2023-06-22T01:40:32;12.13;;;9.45;;
75062;SDS011;63981;51.052;13.754;2023-06-22T01:43:00;10.27;;;8.50;;
75062;SDS011;63981;51.052;13.754;2023-06-22T01:45:27;11.63;;;8.20;;
75062;SDS011;63981;51.052;13.754;2023-06-22T01:47:53;9.77;;;8.40;;
75062;SDS011;63981;51.052;13.754;2023-06-22T01:50:20;10.27;;;8.40;;
75062;SDS011;63981;51.052;13.754;2023-06-22T01:52:46;11.57;;;8.82;;
75062;SDS011;63981;51.052;13.754;2023-06-22T01:55:12;11.70;;;9.55;;
75062;SDS011;63981;51.052;13.754;2023-06-22T01:57:39;11.52;;;9.02;;
75062;SDS011;63981;51.052;13.754;2023-06-22T02:00:12;9.70;;;7.65;;
75062;SDS011;63981;51.052;13.754;2023-06-22T02:05:37;10.85;;;8.00;;
75062;SDS011;63981;51.052;13.754;2023-06-22T02:08:09;9.52;;;7.80;;
75062;SDS011;63981;51.052;13.754;2023-06-22T02:10:37;10.10;;;7.60;;
75062;SDS011;63981;51.052;13.754;2023-06-22T02:13:07;11.25;;;7.72;;
75062;SDS011;63981;51.052;13.754;2023-06-22T02:15:34;10.25;;;8.20;;
75062;SDS011;63981;51.052;13.754;2023-06-22T02:18:00;8.43;;;7.43;;
75062;SDS011;63981;51.052;13.754;2023-06-22T02:20:27;10.50;;;7.80;;
75062;SDS011;63981;51.052;13.754;2023-06-22T02:22:52;9.13;;;7.82;;
75062;SDS011;63981;51.052;13.754;2023-06-22T02:25:18;9.55;;;8.23;;
75062;SDS011;63981;51.052;13.754;2023-06-22T02:27:45;8.48;;;7.18;;
75062;SDS011;63981;51.052;13.754;2023-06-22T02:30:11;10.32;;;7.78;;
75062;SDS011;63981;51.052;13.754;2023-06-22T02:32:38;11.55;;;7.60;;
75062;SDS011;63981;51.052;13.754;2023-06-22T02:35:07;12.57;;;9.40;;
75062;SDS011;63981;51.052;13.754;2023-06-22T02:37:35;12.38;;;9.43;;
75062;SDS011;63981;51.052;13.754;2023-06-22T02:40:04;9.02;;;7.25;;
75062;SDS011;63981;51.052;13.754;2023-06-22T02:42:33;9.10;;;7.32;;
75062;SDS011;63981;51.052;13.754;2023-06-22T02:44:59;11.55;;;8.68;;
75062;SDS011;63981;51.052;13.754;2023-06-22T02:47:25;14.38;;;10.18;;
75062;SDS011;63981;51.052;13.754;2023-06-22T02:49:51;12.13;;;9.70;;
75062;SDS011;63981;51.052;13.754;2023-06-22T02:52:18;13.90;;;9.07;;
75062;SDS011;63981;51.052;13.754;2023-06-22T02:54:44;9.05;;;7.45;;
75062;SDS011;63981;51.052;13.754;2023-06-22T02:57:12;7.97;;;7.05;;
75062;SDS011;63981;51.052;13.754;2023-06-22T02:59:40;10.07;;;7.78;;
75062;SDS011;63981;51.052;13.754;2023-06-22T03:02:09;9.70;;;7.80;;
75062;SDS011;63981;51.052;13.754;2023-06-22T03:04:35;11.25;;;7.55;;
75062;SDS011;63981;51.052;13.754;2023-06-22T03:07:01;11.40;;;9.07;;
75062;SDS011;63981;51.052;13.754;2023-06-22T03:09:29;9.25;;;8.07;;
75062;SDS011;63981;51.052;13.754;2023-06-22T03:11:56;9.93;;;8.35;;
75062;SDS011;63981;51.052;13.754;2023-06-22T03:14:25;9.15;;;7.90;;
75062;SDS011;63981;51.052;13.754;2023-06-22T03:16:51;11.48;;;8.23;;
75062;SDS011;63981;51.052;13.754;2023-06-22T03:19:18;9.48;;;7.68;;
75062;SDS011;63981;51.052;13.754;2023-06-22T03:21:45;12.93;;;9.00;;
75062;SDS011;63981;51.052;13.754;2023-06-22T03:24:10;12.30;;;8.60;;
75062;SDS011;63981;51.052;13.754;2023-06-22T03:26:37;11.65;;;9.50;;
75062;SDS011;63981;51.052;13.754;2023-06-22T03:29:03;10.48;;;7.75;;
75062;SDS011;63981;51.052;13.754;2023-06-22T03:31:30;10.75;;;7.43;;
75062;SDS011;63981;51.052;13.754;2023-06-22T03:33:56;11.02;;;8.25;;
75062;SDS011;63981;51.052;13.754;2023-06-22T03:36:22;10.88;;;8.13;;
75062;SDS011;63981;51.052;13.754;2023-06-22T03:38:49;9.45;;;7.63;;
75062;SDS011;63981;51.052;13.754;2023-06-22T03:41:15;10.13;;;8.27;;
75062;SDS011;63981;51.052;13.754;2023-06-22T03:43:42;11.60;;;9.18;;
75062;SDS011;63981;51.052;13.754;2023-06-22T03:46:09;11.63;;;9.20;;
75062;SDS011;63981;51.052;13.754;2023-06-22T03:48:34;10.27;;;8.10;;
75062;SDS011;63981;51.052;13.754;2023-06-22T03:51:00;10.65;;;7.95;;
75062;SDS011;63981;51.052;13.754;2023-06-22T03:53:27;9.38;;;8.07;;
75062;SDS011;63981;51.052;13.754;2023-06-22T03:55:52;10.27;;;7.72;;
75062;SDS011;63981;51.052;13.754;2023-06-22T03:58:19;9.60;;;7.85;;
75062;SDS011;63981;51.052;13.754;2023-06-22T04:00:49;10.00;;;7.50;;
75062;SDS011;63981;51.052;13.754;2023-06-22T04:03:16;11.73;;;9.30;;
75062;SDS011;63981;51.052;13.754;2023-06-22T04:05:46;9.50;;;8.07;;
75062;SDS011;63981;51.052;13.754;2023-06-22T04:08:13;10.77;;;8.27;;
75062;SDS011;63981;51.052;13.754;2023-06-22T04:10:39;10.82;;;8.93;;
75062;SDS011;63981;51.052;13.754;2023-06-22T04:13:05;11.40;;;8.02;;
75062;SDS011;63981;51.052;13.754;2023-06-22T04:15:31;11.32;;;8.98;;
75062;SDS011;63981;51.052;13.754;2023-06-22T04:17:56;9.40;;;7.32;;
75062;SDS011;63981;51.052;13.754;2023-06-22T04:20:23;9.73;;;7.88;;
75062;SDS011;63981;51.052;13.754;2023-06-22T04:22:54;8.18;;;7.22;;
75062;SDS011;63981;51.052;13.754;2023-06-22T04:25:19;9.52;;;7.32;;
75062;SDS011;63981;51.052;13.754;2023-06-22T04:27:46;10.15;;;8.70;;
75062;SDS011;63981;51.052;13.754;2023-06-22T04:30:12;8.27;;;7.22;;
75062;SDS011;63981;51.052;13.754;2023-06-22T04:32:40;11.13;;;8.18;;
75062;SDS011;63981;51.052;13.754;2023-06-22T04:35:06;12.43;;;8.18;;
75062;SDS011;63981;51.052;13.754;2023-06-22T04:37:33;9.55;;;8.55;;
75062;SDS011;63981;51.052;13.754;2023-06-22T04:39:59;10.20;;;8.45;;
75062;SDS011;63981;51.052;13.754;2023-06-22T04:42:26;10.57;;;8.18;;
75062;SDS011;63981;51.052;13.754;2023-06-22T04:44:52;9.57;;;7.82;;
75062;SDS011;63981;51.052;13.754;2023-06-22T04:47:18;10.38;;;7.72;;
75062;SDS011;63981;51.052;13.754;2023-06-22T04:49:44;10.15;;;8.07;;
75062;SDS011;63981;51.052;13.754;2023-06-22T04:52:10;14.30;;;8.68;;
75062;SDS011;63981;51.052;13.754;2023-06-22T04:54:38;12.15;;;8.43;;
75062;SDS011;63981;51.052;13.754;2023-06-22T04:57:06;10.95;;;7.57;;
75062;SDS011;63981;51.052;13.754;2023-06-22T04:59:36;9.70;;;7.60;;
75062;SDS011;63981;51.052;13.754;2023-06-22T05:02:04;9.93;;;7.68;;
75062;SDS011;63981;51.052;13.754;2023-06-22T05:04:31;10.52;;;7.72;;
75062;SDS011;63981;51.052;13.754;2023-06-22T05:06:58;11.25;;;8.55;;
75062;SDS011;63981;51.052;13.754;2023-06-22T05:09:25;10.68;;;7.28;;
75062;SDS011;63981;51.052;13.754;2023-06-22T05:11:51;12.05;;;7.85;;
75062;SDS011;63981;51.052;13.754;2023-06-22T05:14:17;11.10;;;8.82;;
75062;SDS011;63981;51.052;13.754;2023-06-22T05:16:43;11.68;;;7.63;;
75062;SDS011;63981;51.052;13.754;2023-06-22T05:19:10;9.52;;;8.00;;
75062;SDS011;63981;51.052;13.754;2023-06-22T05:21:36;10.50;;;8.35;;
75062;SDS011;63981;51.052;13.754;2023-06-22T05:24:02;9.20;;;7.53;;
75062;SDS011;63981;51.052;13.754;2023-06-22T05:26:29;10.48;;;6.72;;
75062;SDS011;63981;51.052;13.754;2023-06-22T05:28:59;9.52;;;7.78;;
75062;SDS011;63981;51.052;13.754;2023-06-22T05:31:26;8.60;;;7.03;;
75062;SDS011;63981;51.052;13.754;2023-06-22T05:33:53;8.38;;;7.18;;
75062;SDS011;63981;51.052;13.754;2023-06-22T05:36:19;8.48;;;6.82;;
75062;SDS011;63981;51.052;13.754;2023-06-22T05:38:46;10.13;;;8.43;;
75062;SDS011;63981;51.052;13.754;2023-06-22T05:41:13;8.50;;;7.18;;
75062;SDS011;63981;51.052;13.754;2023-06-22T05:43:39;8.68;;;7.22;;
75062;SDS011;63981;51.052;13.754;2023-06-22T05:46:05;10.25;;;8.75;;
75062;SDS011;63981;51.052;13.754;2023-06-22T05:48:31;13.32;;;9.30;;
75062;SDS011;63981;51.052;13.754;2023-06-22T05:50:57;10.88;;;8.05;;
75062;SDS011;63981;51.052;13.754;2023-06-22T05:53:23;9.40;;;7.80;;
75062;SDS011;63981;51.052;13.754;2023-06-22T05:55:49;9.18;;;7.75;;
75062;SDS011;63981;51.052;13.754;2023-06-22T05:58:33;8.32;;;6.75;;
75062;SDS011;63981;51.052;13.754;2023-06-22T06:00:59;9.70;;;7.40;;
75062;SDS011;63981;51.052;13.754;2023-06-22T06:03:26;13.35;;;9.32;;
75062;SDS011;63981;51.052;13.754;2023-06-22T06:05:54;8.35;;;7.38;;
75062;SDS011;63981;51.052;13.754;2023-06-22T06:08:19;8.43;;;7.30;;
75062;SDS011;63981;51.052;13.754;2023-06-22T06:10:45;9.85;;;8.85;;
75062;SDS011;63981;51.052;13.754;2023-06-22T06:13:11;11.38;;;8.60;;
75062;SDS011;63981;51.052;13.754;2023-06-22T06:15:37;10.77;;;8.93;;
75062;SDS011;63981;51.052;13.754;2023-06-22T06:18:04;10.00;;;8.35;;
75062;SDS011;63981;51.052;13.754;2023-06-22T06:20:30;9.27;;;7.90;;
75062;SDS011;63981;51.052;13.754;2023-06-22T06:22:57;8.90;;;7.82;;
75062;SDS011;63981;51.052;13.754;2023-06-22T06:25:23;10.25;;;7.75;;
75062;SDS011;63981;51.052;13.754;2023-06-22T06:27:49;8.93;;;7.65;;
75062;SDS011;63981;51.052;13.754;2023-06-22T06:30:18;10.75;;;6.97;;
75062;SDS011;63981;51.052;13.754;2023-06-22T06:32:45;9.63;;;7.22;;
75062;SDS011;63981;51.052;13.754;2023-06-22T06:35:12;11.10;;;6.97;;
75062;SDS011;63981;51.052;13.754;2023-06-22T06:37:41;8.15;;;7.20;;
75062;SDS011;63981;51.052;13.754;2023-06-22T06:40:09;9.38;;;7.15;;
75062;SDS011;63981;51.052;13.754;2023-06-22T06:42:37;9.73;;;7.22;;
75062;SDS011;63981;51.052;13.754;2023-06-22T06:45:06;8.93;;;7.15;;
75062;SDS011;63981;51.052;13.754;2023-06-22T06:47:33;8.30;;;7.05;;
75062;SDS011;63981;51.052;13.754;2023-06-22T06:49:58;11.85;;;7.70;;
75062;SDS011;63981;51.052;13.754;2023-06-22T06:52:25;8.80;;;7.22;;
75062;SDS011;63981;51.052;13.754;2023-06-22T06:54:51;10.27;;;7.70;;
75062;SDS011;63981;51.052;13.754;2023-06-22T06:57:17;9.05;;;8.10;;
75062;SDS011;63981;51.052;13.754;2023-06-22T06:59:44;9.18;;;7.85;;
75062;SDS011;63981;51.052;13.754;2023-06-22T07:02:09;9.75;;;8.75;;
75062;SDS011;63981;51.052;13.754;2023-06-22T07:04:35;8.85;;;7.65;;
75062;SDS011;63981;51.052;13.754;2023-06-22T07:07:01;8.75;;;7.78;;
75062;SDS011;63981;51.052;13.754;2023-06-22T07:09:28;9.32;;;7.80;;
75062;SDS011;63981;51.052;13.754;2023-06-22T07:11:54;9.85;;;8.70;;
75062;SDS011;63981;51.052;13.754;2023-06-22T07:14:19;11.25;;;9.00;;
75062;SDS011;63981;51.052;13.754;2023-06-22T07:16:45;9.48;;;8.32;;
75062;SDS011;63981;51.052;13.754;2023-06-22T07:19:11;9.80;;;8.75;;
75062;SDS011;63981;51.052;13.754;2023-06-22T07:21:38;8.63;;;7.72;;
75062;SDS011;63981;51.052;13.754;2023-06-22T07:24:05;12.55;;;8.90;;
75062;SDS011;63981;51.052;13.754;2023-06-22T07:26:31;9.75;;;8.75;;
75062;SDS011;63981;51.052;13.754;2023-06-22T07:28:57;12.77;;;8.38;;
75062;SDS011;63981;51.052;13.754;2023-06-22T07:31:27;9.77;;;8.15;;
75062;SDS011;63981;51.052;13.754;2023-06-22T07:33:52;9.23;;;8.30;;
75062;SDS011;63981;51.052;13.754;2023-06-22T07:36:18;8.35;;;7.35;;
75062;SDS011;63981;51.052;13.754;2023-06-22T07:38:44;7.85;;;7.15;;
75062;SDS011;63981;51.052;13.754;2023-06-22T07:41:10;7.20;;;6.30;;
75062;SDS011;63981;51.052;13.754;2023-06-22T07:43:36;10.27;;;8.02;;
75062;SDS011;63981;51.052;13.754;2023-06-22T07:46:05;8.25;;;7.45;;
75062;SDS011;63981;51.052;13.754;2023-06-22T07:48:31;8.50;;;7.55;;
75062;SDS011;63981;51.052;13.754;2023-06-22T07:50:57;8.27;;;7.47;;
75062;SDS011;63981;51.052;13.754;2023-06-22T07:53:23;9.77;;;8.25;;
75062;SDS011;63981;51.052;13.754;2023-06-22T07:55:49;7.43;;;6.70;;
75062;SDS011;63981;51.052;13.754;2023-06-22T07:58:15;8.07;;;6.70;;
75062;SDS011;63981;51.052;13.754;2023-06-22T08:00:44;8.13;;;7.32;;
75062;SDS011;63981;51.052;13.754;2023-06-22T08:03:10;7.93;;;6.97;;
75062;SDS011;63981;51.052;13.754;2023-06-22T08:05:36;7.85;;;6.97;;
75062;SDS011;63981;51.052;13.754;2023-06-22T08:08:02;7.55;;;6.85;;
75062;SDS011;63981;51.052;13.754;2023-06-22T08:10:27;8.15;;;7.18;;
75062;SDS011;63981;51.052;13.754;2023-06-22T08:12:53;12.10;;;8.40;;
75062;SDS011;63981;51.052;13.754;2023-06-22T08:15:19;8.05;;;6.70;;
75062;SDS011;63981;51.052;13.754;2023-06-22T08:17:45;10.27;;;7.13;;
75062;SDS011;63981;51.052;13.754;2023-06-22T08:20:14;7.43;;;6.72;;
75062;SDS011;63981;51.052;13.754;2023-06-22T08:22:40;7.97;;;7.25;;
75062;SDS011;63981;51.052;13.754;2023-06-22T08:25:07;10.00;;;8.80;;
75062;SDS011;63981;51.052;13.754;2023-06-22T08:27:33;8.35;;;7.55;;
75062;SDS011;63981;51.052;13.754;2023-06-22T08:29:59;7.47;;;6.72;;
75062;SDS011;63981;51.052;13.754;2023-06-22T08:32:26;7.18;;;6.47;;
75062;SDS011;63981;51.052;13.754;2023-06-22T08:34:53;8.00;;;6.97;;
75062;SDS011;63981;51.052;13.754;2023-06-22T08:37:20;10.73;;;8.75;;
75062;SDS011;63981;51.052;13.754;2023-06-22T08:39:46;6.72;;;6.03;;
75062;SDS011;63981;51.052;13.754;2023-06-22T08:42:12;6.85;;;5.72;;
75062;SDS011;63981;51.052;13.754;2023-06-22T08:44:38;9.57;;;5.88;;
75062;SDS011;63981;51.052;13.754;2023-06-22T08:47:04;7.60;;;5.70;;
75062;SDS011;63981;51.052;13.754;2023-06-22T08:49:30;6.18;;;5.57;;
75062;SDS011;63981;51.052;13.754;2023-06-22T08:51:55;9.15;;;6.10;;
75062;SDS011;63981;51.052;13.754;2023-06-22T08:54:22;6.20;;;5.60;;
75062;SDS011;63981;51.052;13.754;2023-06-22T08:56:48;6.50;;;5.90;;
75062;SDS011;63981;51.052;13.754;2023-06-22T08:59:14;6.07;;;5.50;;
75062;SDS011;63981;51.052;13.754;2023-06-22T09:01:40;7.13;;;5.30;;
75062;SDS011;63981;51.052;13.754;2023-06-22T09:04:06;6.47;;;5.80;;
75062;SDS011;63981;51.052;13.754;2023-06-22T09:06:34;6.53;;;5.90;;
75062;SDS011;63981;51.052;13.754;2023-06-22T09:09:00;6.57;;;5.93;;
75062;SDS011;63981;51.052;13.754;2023-06-22T09:11:26;6.80;;;5.95;;
75062;SDS011;63981;51.052;13.754;2023-06-22T09:13:51;6.15;;;5.55;;
75062;SDS011;63981;51.052;13.754;2023-06-22T09:18:47;6.13;;;5.40;;
75062;SDS011;63981;51.052;13.754;2023-06-22T09:21:13;6.50;;;5.90;;
75062;SDS011;63981;51.052;13.754;2023-06-22T09:23:39;5.82;;;5.32;;
75062;SDS011;63981;51.052;13.754;2023-06-22T09:26:05;6.22;;;5.63;;
75062;SDS011;63981;51.052;13.754;2023-06-22T09:28:31;5.50;;;5.00;;
75062;SDS011;63981;51.052;13.754;2023-06-22T09:30:58;6.57;;;5.97;;
75062;SDS011;63981;51.052;13.754;2023-06-22T09:33:25;5.93;;;5.22;;
75062;SDS011;63981;51.052;13.754;2023-06-22T09:35:51;6.75;;;5.53;;
75062;SDS011;63981;51.052;13.754;2023-06-22T09:38:17;5.97;;;5.28;;
75062;SDS011;63981;51.052;13.754;2023-06-22T09:40:43;7.25;;;5.70;;
75062;SDS011;63981;51.052;13.754;2023-06-22T09:43:10;6.55;;;5.85;;
75062;SDS011;63981;51.052;13.754;2023-06-22T09:45:37;6.57;;;5.90;;
75062;SDS011;63981;51.052;13.754;2023-06-22T09:48:03;6.50;;;5.90;;
75062;SDS011;63981;51.052;13.754;2023-06-22T09:50:29;5.38;;;4.88;;
75062;SDS011;63981;51.052;13.754;2023-06-22T09:52:55;6.00;;;5.30;;
75062;SDS011;63981;51.052;13.754;2023-06-22T09:55:21;6.75;;;6.15;;
75062;SDS011;63981;51.052;13.754;2023-06-22T09:57:47;5.63;;;5.10;;
75062;SDS011;63981;51.052;13.754;2023-06-22T10:00:14;6.00;;;5.40;;
75062;SDS011;63981;51.052;13.754;2023-06-22T10:02:42;5.53;;;5.03;;
75062;SDS011;63981;51.052;13.754;2023-06-22T10:05:08;6.28;;;5.75;;
75062;SDS011;63981;51.052;13.754;2023-06-22T10:07:34;5.53;;;5.03;;
75062;SDS011;63981;51.052;13.754;2023-06-22T10:10:00;6.70;;;6.10;;
75062;SDS011;63981;51.052;13.754;2023-06-22T10:12:27;6.40;;;5.47;;
75062;SDS011;63981;51.052;13.754;2023-06-22T10:14:53;5.97;;;5.47;;
75062;SDS011;63981;51.052;13.754;2023-06-22T10:17:18;5.47;;;4.97;;
75062;SDS011;63981;51.052;13.754;2023-06-22T10:19:44;5.45;;;4.93;;
75062;SDS011;63981;51.052;13.754;2023-06-22T10:22:10;5.55;;;5.05;;
75062;SDS011;63981;51.052;13.754;2023-06-22T10:24:36;6.38;;;5.60;;
75062;SDS011;63981;51.052;13.754;2023-06-22T10:27:03;5.63;;;5.15;;
75062;SDS011;63981;51.052;13.754;2023-06-22T10:29:29;6.90;;;5.53;;
75062;SDS011;63981;51.052;13.754;2023-06-22T10:31:55;6.25;;;5.75;;
75062;SDS011;63981;51.052;13.754;2023-06-22T10:34:21;5.70;;;5.20;;
75062;SDS011;63981;51.052;13.754;2023-06-22T10:36:47;5.25;;;4.85;;
75062;SDS011;63981;51.052;13.754;2023-06-22T10:39:14;6.30;;;5.70;;
75062;SDS011;63981;51.052;13.754;2023-06-22T10:41:40;7.50;;;6.75;;
75062;SDS011;63981;51.052;13.754;2023-06-22T10:44:06;5.88;;;5.38;;
75062;SDS011;63981;51.052;13.754;2023-06-22T10:46:32;6.45;;;5.85;;
75062;SDS011;63981;51.052;13.754;2023-06-22T10:48:58;7.03;;;5.90;;
75062;SDS011;63981;51.052;13.754;2023-06-22T10:51:24;6.32;;;5.82;;
75062;SDS011;63981;51.052;13.754;2023-06-22T10:53:51;6.65;;;5.90;;
75062;SDS011;63981;51.052;13.754;2023-06-22T10:56:17;5.82;;;5.32;;
75062;SDS011;63981;51.052;13.754;2023-06-22T10:58:44;6.57;;;5.97;;
75062;SDS011;63981;51.052;13.754;2023-06-22T11:01:10;7.15;;;6.45;;
75062;SDS011;63981;51.052;13.754;2023-06-22T11:03:36;7.05;;;5.88;;
75062;SDS011;63981;51.052;13.754;2023-06-22T11:06:02;6.95;;;6.28;;
75062;SDS011;63981;51.052;13.754;2023-06-22T11:08:28;6.15;;;5.53;;
75062;SDS011;63981;51.052;13.754;2023-06-22T11:10:54;7.00;;;6.30;;
75062;SDS011;63981;51.052;13.754;2023-06-22T11:13:19;6.05;;;5.28;;
75062;SDS011;63981;51.052;13.754;2023-06-22T11:15:45;7.00;;;6.30;;
75062;SDS011;63981;51.052;13.754;2023-06-22T11:18:11;7.22;;;5.80;;
75062;SDS011;63981;51.052;13.754;2023-06-22T11:20:37;5.85;;;5.35;;
75062;SDS011;63981;51.052;13.754;2023-06-22T11:23:07;6.28;;;5.55;;
75062;SDS011;63981;51.052;13.754;2023-06-22T11:25:33;7.30;;;6.63;;
75062;SDS011;63981;51.052;13.754;2023-06-22T11:28:03;8.25;;;6.38;;
75062;SDS011;63981;51.052;13.754;2023-06-22T11:30:30;7.00;;;6.30;;
75062;SDS011;63981;51.052;13.754;2023-06-22T11:32:56;6.93;;;6.32;;
75062;SDS011;63981;51.052;13.754;2023-06-22T11:35:24;7.40;;;5.82;;
75062;SDS011;63981;51.052;13.754;2023-06-22T11:37:49;5.85;;;5.35;;
75062;SDS011;63981;51.052;13.754;2023-06-22T11:40:15;9.43;;;5.60;;
75062;SDS011;63981;51.052;13.754;2023-06-22T11:42:43;5.75;;;5.25;;
75062;SDS011;63981;51.052;13.754;2023-06-22T11:45:09;6.00;;;4.90;;
75062;SDS011;63981;51.052;13.754;2023-06-22T11:47:35;5.78;;;5.20;;
75062;SDS011;63981;51.052;13.754;2023-06-22T11:50:02;4.95;;;4.55;;
75062;SDS011;63981;51.052;13.754;2023-06-22T11:52:28;5.45;;;4.97;;
75062;SDS011;63981;51.052;13.754;2023-06-22T11:54:54;5.88;;;5.47;;
75062;SDS011;63981;51.052;13.754;2023-06-22T11:57:20;6.13;;;5.63;;
75062;SDS011;63981;51.052;13.754;2023-06-22T11:59:45;6.53;;;6.00;;
75062;SDS011;63981;51.052;13.754;2023-06-22T12:02:11;6.57;;;6.05;;
75062;SDS011;63981;51.052;13.754;2023-06-22T12:04:37;6.80;;;6.10;;
75062;SDS011;63981;51.052;13.754;2023-06-22T12:07:03;6.50;;;6.00;;
75062;SDS011;63981;51.052;13.754;2023-06-22T12:09:29;5.85;;;5.28;;
75062;SDS011;63981;51.052;13.754;2023-06-22T12:11:54;5.05;;;4.38;;
75062;SDS011;63981;51.052;13.754;2023-06-22T12:14:20;6.97;;;6.38;;
75062;SDS011;63981;51.052;13.754;2023-06-22T12:16:46;4.95;;;4.55;;
75062;SDS011;63981;51.052;13.754;2023-06-22T12:19:12;4.90;;;4.50;;
75062;SDS011;63981;51.052;13.754;2023-06-22T12:21:38;4.80;;;4.40;;
75062;SDS011;63981;51.052;13.754;2023-06-22T12:24:06;6.22;;;5.72;;
75062;SDS011;63981;51.052;13.754;2023-06-22T12:26:31;6.53;;;5.85;;
75062;SDS011;63981;51.052;13.754;2023-06-22T12:28:57;5.75;;;5.25;;
75062;SDS011;63981;51.052;13.754;2023-06-22T12:31:23;5.22;;;4.82;;
75062;SDS011;63981;51.052;13.754;2023-06-22T12:33:49;5.00;;;4.65;;
75062;SDS011;63981;51.052;13.754;2023-06-22T12:36:14;5.15;;;4.75;;
75062;SDS011;63981;51.052;13.754;2023-06-22T12:38:42;5.35;;;4.85;;
75062;SDS011;63981;51.052;13.754;2023-06-22T12:41:07;6.70;;;5.10;;
75062;SDS011;63981;51.052;13.754;2023-06-22T12:43:33;6.25;;;5.68;;
75062;SDS011;63981;51.052;13.754;2023-06-22T12:45:59;7.07;;;5.47;;
75062;SDS011;63981;51.052;13.754;2023-06-22T12:48:25;5.40;;;4.90;;
75062;SDS011;63981;51.052;13.754;2023-06-22T12:50:53;5.55;;;5.05;;
75062;SDS011;63981;51.052;13.754;2023-06-22T12:53:19;5.68;;;5.18;;
75062;SDS011;63981;51.052;13.754;2023-06-22T12:55:45;5.72;;;4.70;;
75062;SDS011;63981;51.052;13.754;2023-06-22T12:58:10;5.50;;;5.03;;
75062;SDS011;63981;51.052;13.754;2023-06-22T13:00:38;5.95;;;5.32;;
75062;SDS011;63981;51.052;13.754;2023-06-22T13:03:04;5.53;;;4.65;;
75062;SDS011;63981;51.052;13.754;2023-06-22T13:05:30;6.93;;;5.15;;
75062;SDS011;63981;51.052;13.754;2023-06-22T13:07:56;5.65;;;5.10;;
75062;SDS011;63981;51.052;13.754;2023-06-22T13:10:22;6.10;;;4.88;;
75062;SDS011;63981;51.052;13.754;2023-06-22T13:12:47;5.22;;;4.60;;
75062;SDS011;63981;51.052;13.754;2023-06-22T13:15:13;5.60;;;5.20;;
75062;SDS011;63981;51.052;13.754;2023-06-22T13:17:39;5.05;;;4.45;;
75062;SDS011;63981;51.052;13.754;2023-06-22T13:20:05;5.45;;;4.63;;
75062;SDS011;63981;51.052;13.754;2023-06-22T13:22:35;4.97;;;4.20;;
75062;SDS011;63981;51.052;13.754;2023-06-22T13:25:09;5.28;;;4.88;;
75062;SDS011;63981;51.052;13.754;2023-06-22T13:27:39;5.40;;;4.90;;
75062;SDS011;63981;51.052;13.754;2023-06-22T13:30:05;7.80;;;5.70;;
75062;SDS011;63981;51.052;13.754;2023-06-22T13:32:31;5.35;;;4.93;;
75062;SDS011;63981;51.052;13.754;2023-06-22T13:34:57;6.07;;;4.80;;
75062;SDS011;63981;51.052;13.754;2023-06-22T13:37:23;5.45;;;4.95;;
75062;SDS011;63981;51.052;13.754;2023-06-22T13:39:49;4.75;;;4.35;;
75062;SDS011;63981;51.052;13.754;2023-06-22T13:42:15;5.80;;;4.35;;
75062;SDS011;63981;51.052;13.754;2023-06-22T13:44:40;4.65;;;4.25;;
75062;SDS011;63981;51.052;13.754;2023-06-22T13:47:06;4.80;;;4.40;;
75062;SDS011;63981;51.052;13.754;2023-06-22T13:49:33;6.35;;;4.82;;
75062;SDS011;63981;51.052;13.754;2023-06-22T13:51:59;5.38;;;4.88;;
75062;SDS011;63981;51.052;13.754;2023-06-22T13:54:25;4.40;;;4.10;;
75062;SDS011;63981;51.052;13.754;2023-06-22T13:56:50;4.72;;;4.32;;
75062;SDS011;63981;51.052;13.754;2023-06-22T13:59:16;5.00;;;4.60;;
75062;SDS011;63981;51.052;13.754;2023-06-22T14:01:42;6.57;;;5.95;;
75062;SDS011;63981;51.052;13.754;2023-06-22T14:04:09;5.75;;;5.10;;
75062;SDS011;63981;51.052;13.754;2023-06-22T14:06:35;5.50;;;5.10;;
75062;SDS011;63981;51.052;13.754;2023-06-22T14:09:01;4.97;;;4.55;;
75062;SDS011;63981;51.052;13.754;2023-06-22T14:11:27;5.55;;;5.05;;
75062;SDS011;63981;51.052;13.754;2023-06-22T14:13:52;5.65;;;4.68;;
75062;SDS011;63981;51.052;13.754;2023-06-22T14:16:18;5.03;;;4.57;;
75062;SDS011;63981;51.052;13.754;2023-06-22T14:18:44;6.13;;;5.57;;
75062;SDS011;63981;51.052;13.754;2023-06-22T14:21:10;6.72;;;6.00;;
75062;SDS011;63981;51.052;13.754;2023-06-22T14:23:36;6.63;;;6.03;;
75062;SDS011;63981;51.052;13.754;2023-06-22T14:26:03;6.03;;;5.30;;
75062;SDS011;63981;51.052;13.754;2023-06-22T14:28:29;6.32;;;5.78;;
75062;SDS011;63981;51.052;13.754;2023-06-22T14:30:55;6.10;;;5.60;;
75062;SDS011;63981;51.052;13.754;2023-06-22T14:33:21;6.10;;;5.50;;
75062;SDS011;63981;51.052;13.754;2023-06-22T14:35:47;6.68;;;5.75;;
75062;SDS011;63981;51.052;13.754;2023-06-22T14:38:14;8.35;;;5.95;;
75062;SDS011;63981;51.052;13.754;2023-06-22T14:40:40;7.93;;;6.30;;
75062;SDS011;63981;51.052;13.754;2023-06-22T14:43:06;6.55;;;5.95;;